Willowdale, Nebraska
Current Conditions -  °F | °C
As of 1:55 AM on Thursday 23 Oct 2014 (Local Time) from KONL Reporting Station
Moderate Fog Moderate Fog  
Wind Chill: 39°   Ceiling: 500
Heat Index: 39°   Visibility: 0.5mi
Dew Point: 39°   Wind: 3mph
Humidity: 100%   Direction: 240°WSW
Pressure: 30.05"   Gusts: NA
Location:  42.6164°N, 98.6183°W
Report Text: KONL 230655Z AUTO 24003KT 1/2SM FG VV005 04/04 A3005 RMK AO2 T00410041
Loading
Personal Weather Stations






























Interactive Weather Map
Tropical Storm Tracking
New forecast layout! Learn more

10-Day Weather Forecast

Advertisements
Track Severe Weather on mobile